Dumont, IA

5:25 AM CST on February 11, 2016 (GMT -0600)
IEM | | Change Station
CLOSE
Current Station
Personal Weather Station
Location: Dougherty, IA
Elevation: 1151 ft
Nearby Weather Stations

Elev 1151 ft 42.98 °N, 93.10 °W | Updated 16 minutes ago

Clear
Clear
-6 °F
Feels Like -6 °F
N
0
Wind Variable Wind from North
Gusts 0.0 mph

Today
High -- | Low -- °F
--% Chance of Precip.
Yesterday
High -- | Low -- °F
Precip. -- in
Pressure 30.29 in
Visibility 10.0 miles
Clouds Clear
Windchill -6 °F
Dew Point -6 °F
Humidity 100%
Rainfall in
Snow Depth Not available.
7:15 AM 5:37 PM
Waxing Crescent, 11% visible
METAR KIFA 111115Z AUTO 03004KT 10SM CLR M16/M20 A3029 RMK AO2 T11651203
Pressure 30.29 in
Visibility 10.0 miles
Clouds Clear
Windchill -6 °F
Dew Point -6 °F
Humidity 100%
Rainfall in
Snow Depth Not available.
7:15 AM 5:37 PM
Waxing Crescent, 11% visible
METAR KIFA 111115Z AUTO 03004KT 10SM CLR M16/M20 A3029 RMK AO2 T11651203

10-Day Weather Forecast

Almanac

Astronomy

Feb. 11, 2016 Rise Set
Actual Time
Civil Twilight
Nautical Twilight
Astronomical Twilight
Moon
Length of Visible Light
Length of Day
Tomorrow will be .
, % of the Moon is Illuminated

Today's Extremes

State Highs State Lows

Community

WunderPhotos

Upload Photos

1,892,030 photos uploaded!

WunderBlog® & News

Nearby

Air Quality

  Air Quality AQ Index Pollutant
Not available.

Snow Depth

Station Depth Elevation

Earthquake Activity

City Distance Mag. Time & Date
Minimum magnitude displayed is 2.5.

Coastal Water Temperatures

Place Temperature

Stations

Nearby Weather Stations

Station Location Temp. Windchill Dew Point Humidity Wind Precip. Elev Updated Type
                   

Watches & Warnings

There are currently no watches in effect.